Time;durP1;ratioP1;P1;durP2;ratioP2;P2;SDS_P1;SDS_P2;PMS_P1;PMS_P2;Temp;Humidity;BMP_temperature;BMP_pressure;BME280_temperature;BME280_humidity;BME280_pressure;Samples;Min_cycle;Max_cycle;Signal;HPM_P1;HPM_P2
2021/11/12 00:02:32;;;;;;;27.80;14.13;;;14.20;91.60;;;;;;5066740;28;20051;-77
2021/11/12 00:13:18;;;;;;;40.20;19.38;;;14.10;91.60;;;;;;5100067;28;20050;-77
2021/11/12 00:15:49;;;;;;;36.00;17.65;;;14.10;91.60;;;;;;5112211;28;20024;-78
2021/11/12 00:18:16;;;;;;;40.22;18.38;;;14.10;91.60;;;;;;5100700;28;20110;-77
2021/11/12 00:20:43;;;;;;;35.65;18.02;;;14.10;91.60;;;;;;5107694;28;20099;-77
2021/11/12 00:23:08;;;;;;;39.13;18.38;;;14.10;91.60;;;;;;5096148;28;20433;-77
2021/11/12 00:25:34;;;;;;;37.50;16.02;;;14.00;91.50;;;;;;5104632;28;20024;-77
2021/11/12 00:28:00;;;;;;;37.83;16.10;;;14.00;91.50;;;;;;5106370;28;20038;-77
2021/11/12 00:36:23;;;;;;;33.42;17.30;;;14.00;91.50;;;;;;5100412;28;20030;-78
2021/11/12 00:44:44;;;;;;;39.17;17.20;;;14.00;91.50;;;;;;5052109;28;20100;-77
2021/11/12 00:47:26;;;;;;;40.00;19.02;;;13.90;91.50;;;;;;5092951;28;20028;-77
2021/11/12 00:55:11;;;;;;;38.97;17.23;;;13.90;91.80;;;;;;5100938;28;20135;-77
2021/11/12 00:57:37;;;;;;;39.17;18.65;;;13.90;91.50;;;;;;5095168;28;20032;-77
2021/11/12 01:00:07;;;;;;;46.00;18.80;;;13.90;91.50;;;;;;5098500;28;20043;-77
2021/11/12 01:02:34;;;;;;;40.38;16.13;;;13.90;91.50;;;;;;5098326;28;20114;-77
2021/11/12 01:05:00;;;;;;;38.65;17.92;;;13.90;91.50;;;;;;5108213;28;20035;-78
2021/11/12 01:07:27;;;;;;;34.00;17.45;;;13.80;91.50;;;;;;5097752;28;20032;-77
2021/11/12 01:09:53;;;;;;;40.83;17.25;;;13.90;91.50;;;;;;5110087;28;20478;-78
2021/11/12 01:12:18;;;;;;;35.13;16.17;;;13.80;91.50;;;;;;5089459;28;20040;-77
2021/11/12 01:14:44;;;;;;;40.55;19.13;;;13.80;91.50;;;;;;5101878;28;20042;-77
2021/11/12 01:17:10;;;;;;;38.67;16.60;;;13.80;91.40;;;;;;5093705;28;20041;-77
2021/11/12 01:19:37;;;;;;;31.65;15.18;;;13.90;91.50;;;;;;5107068;28;20035;-77
2021/11/12 01:22:04;;;;;;;43.15;19.48;;;13.90;91.50;;;;;;5105178;28;20024;-78
2021/11/12 01:24:29;;;;;;;36.90;18.10;;;13.80;91.50;;;;;;5100104;28;20040;-77
2021/11/12 01:26:55;;;;;;;37.55;18.52;;;13.80;91.50;;;;;;5102768;28;20020;-77
2021/11/12 01:29:21;;;;;;;40.65;19.83;;;13.80;91.40;;;;;;5097186;28;20380;-77
2021/11/12 01:31:46;;;;;;;46.50;19.00;;;13.80;91.40;;;;;;5105860;28;20020;-77
2021/11/12 01:34:12;;;;;;;36.42;19.63;;;13.90;91.40;;;;;;5105329;28;20463;-76
2021/11/12 01:36:43;;;;;;;38.70;19.42;;;13.80;91.40;;;;;;5104358;28;20028;-78
2021/11/12 01:39:15;;;;;;;34.00;15.02;;;13.90;91.40;;;;;;5098003;28;20093;-77
2021/11/12 01:41:50;;;;;;;36.80;18.57;;;13.80;91.30;;;;;;5100039;28;20036;-78
2021/11/12 01:44:25;;;;;;;49.15;20.92;;;13.80;91.30;;;;;;5094308;28;20064;-77
2021/11/12 01:51:52;;;;;;;35.40;18.02;;;13.90;91.30;;;;;;5106205;28;20048;-77
2021/11/12 01:54:40;;;;;;;42.50;21.02;;;13.90;91.30;;;;;;5101394;28;20495;-77
2021/11/12 01:59:41;;;;;;;36.78;19.70;;;13.90;91.20;;;;;;5104285;28;20395;-76
2021/11/12 02:02:08;;;;;;;45.00;20.60;;;13.90;91.20;;;;;;5095851;28;20027;-77
2021/11/12 02:04:36;;;;;;;43.13;21.70;;;13.90;91.20;;;;;;5100549;28;20046;-77
2021/11/12 02:07:02;;;;;;;42.55;19.20;;;13.90;91.20;;;;;;5109131;28;20113;-78
2021/11/12 02:09:29;;;;;;;34.20;15.75;;;13.90;91.20;;;;;;5110091;28;20447;-77
2021/11/12 02:12:04;;;;;;;39.83;18.45;;;13.90;91.10;;;;;;5097753;28;20080;-78
2021/11/12 02:14:31;;;;;;;39.42;18.73;;;13.90;91.10;;;;;;5096801;28;20039;-78
2021/11/12 02:17:07;;;;;;;41.13;19.88;;;13.90;91.10;;;;;;5093350;28;20024;-79
2021/11/12 02:19:37;;;;;;;32.95;17.15;;;13.90;91.10;;;;;;5107135;28;20384;-75
2021/11/12 02:22:11;;;;;;;39.50;17.50;;;13.80;91.10;;;;;;5097151;28;20028;-76
2021/11/12 02:24:41;;;;;;;41.60;18.20;;;13.80;91.10;;;;;;5099133;28;20035;-77
2021/11/12 02:27:11;;;;;;;40.92;18.38;;;13.80;91.10;;;;;;5101857;28;20495;-80
2021/11/12 02:29:41;;;;;;;42.92;19.70;;;13.80;91.40;;;;;;5097644;28;20024;-80
2021/11/12 02:32:19;;;;;;;36.38;18.88;;;13.80;91.10;;;;;;5099213;28;20032;-77
2021/11/12 02:34:48;;;;;;;38.97;18.75;;;13.80;91.10;;;;;;5101588;28;20034;-77
2021/11/12 02:37:14;;;;;;;39.05;20.20;;;13.80;91.10;;;;;;5102452;28;20027;-77
2021/11/12 02:39:41;;;;;;;35.58;20.33;;;13.80;91.10;;;;;;5101580;28;20528;-77
2021/11/12 02:42:06;;;;;;;35.75;19.38;;;13.80;91.10;;;;;;5104146;28;20374;-77
2021/11/12 02:44:35;;;;;;;34.10;18.45;;;13.80;91.10;;;;;;5101688;28;20031;-77
2021/11/12 02:47:02;;;;;;;36.17;19.40;;;13.80;91.00;;;;;;5101825;28;20064;-78
2021/11/12 02:49:27;;;;;;;37.30;17.98;;;13.80;91.00;;;;;;5098974;28;20036;-77
2021/11/12 02:51:54;;;;;;;38.00;19.02;;;13.80;91.00;;;;;;5096125;28;20020;-77
2021/11/12 02:54:19;;;;;;;32.13;17.52;;;13.80;90.90;;;;;;5104507;28;20544;-77
2021/11/12 02:56:45;;;;;;;34.97;18.75;;;13.80;91.00;;;;;;5107226;28;20028;-77
2021/11/12 02:59:12;;;;;;;39.80;20.20;;;13.80;91.00;;;;;;5101449;28;20177;-77
2021/11/12 03:01:42;;;;;;;36.15;19.20;;;13.80;90.90;;;;;;5098730;28;20032;-77
2021/11/12 03:04:08;;;;;;;42.28;20.83;;;13.80;90.90;;;;;;5103679;28;20035;-77
2021/11/12 03:06:35;;;;;;;33.60;18.08;;;13.80;91.20;;;;;;5098000;28;20042;-77
2021/11/12 03:09:05;;;;;;;35.88;19.65;;;13.80;90.90;;;;;;5100476;28;20055;-77
2021/11/12 03:11:32;;;;;;;39.63;19.48;;;13.90;90.90;;;;;;5107443;28;20099;-77
2021/11/12 03:13:58;;;;;;;38.97;18.63;;;13.90;90.90;;;;;;5113737;27;20471;-77
2021/11/12 03:16:23;;;;;;;37.72;19.70;;;13.90;90.80;;;;;;5114569;27;20040;-77
2021/11/12 03:18:50;;;;;;;37.28;19.75;;;13.90;90.80;;;;;;5112147;27;20042;-77
2021/11/12 03:21:19;;;;;;;33.78;18.80;;;13.90;90.80;;;;;;5097277;28;20024;-77
2021/11/12 03:23:51;;;;;;;37.10;18.13;;;13.90;90.80;;;;;;5107296;28;20142;-77
2021/11/12 03:56:28;;;;;;;38.53;19.17;;;13.80;90.60;;;;;;5104825;28;20457;-78
2021/11/12 04:06:52;;;;;;;30.80;15.55;;;13.70;90.70;;;;;;5043052;28;20052;-77
2021/11/12 04:18:17;;;;;;;29.15;15.52;;;13.70;90.60;;;;;;5108076;28;20463;-77
2021/11/12 05:10:00;;;;;;;34.53;17.17;;;13.60;90.40;;;;;;5099984;28;20098;-77
2021/11/12 05:12:45;;;;;;;28.83;15.23;;;13.70;90.40;;;;;;5111584;28;20036;-77
2021/11/12 05:33:35;;;;;;;31.15;16.48;;;13.60;90.40;;;;;;5097352;28;20119;-77
2021/11/12 05:55:49;;;;;;;37.90;18.25;;;13.50;90.30;;;;;;5102376;27;20075;-76
2021/11/12 05:58:14;;;;;;;32.92;18.48;;;13.50;90.20;;;;;;5092874;28;20038;-76
2021/11/12 06:00:40;;;;;;;32.88;17.13;;;13.50;90.20;;;;;;5104006;27;20024;-78
2021/11/12 06:03:06;;;;;;;30.55;16.48;;;13.50;90.20;;;;;;5105997;28;20407;-79
2021/11/12 06:05:32;;;;;;;34.67;17.67;;;13.50;90.20;;;;;;5107059;28;20081;-78
2021/11/12 06:07:58;;;;;;;36.58;19.08;;;13.50;90.20;;;;;;5101008;27;20038;-85
2021/11/12 06:10:23;;;;;;;33.00;18.20;;;13.50;90.20;;;;;;5102281;27;20028;-85
2021/11/12 06:12:49;;;;;;;39.47;18.25;;;13.50;90.10;;;;;;5108095;28;20354;-86
2021/11/12 06:15:15;;;;;;;35.63;18.02;;;13.50;90.20;;;;;;5098588;28;20103;-80
2021/11/12 06:17:42;;;;;;;33.05;17.35;;;13.50;90.20;;;;;;5100713;28;20395;-80
2021/11/12 06:20:13;;;;;;;36.08;16.52;;;13.40;90.10;;;;;;5108598;28;20040;-80
2021/11/12 06:22:39;;;;;;;32.92;16.30;;;13.40;90.10;;;;;;5100446;28;20541;-80
2021/11/12 06:25:06;;;;;;;34.72;17.00;;;13.40;90.20;;;;;;5101291;27;20031;-68
2021/11/12 06:27:31;;;;;;;29.77;14.45;;;13.40;90.20;;;;;;5098306;28;20102;-77
2021/11/12 06:29:57;;;;;;;35.45;17.98;;;13.40;90.20;;;;;;5098914;28;20058;-78
2021/11/12 06:32:23;;;;;;;40.65;18.63;;;13.40;90.20;;;;;;5092492;28;20506;-78
2021/11/12 06:34:50;;;;;;;39.13;19.00;;;13.30;90.20;;;;;;5097693;28;20036;-77
2021/11/12 06:37:16;;;;;;;31.70;17.08;;;13.30;90.20;;;;;;5097847;28;20475;-78
2021/11/12 06:39:41;;;;;;;40.45;20.15;;;13.30;90.30;;;;;;5097596;28;20034;-78
2021/11/12 06:42:15;;;;;;;37.42;15.18;;;13.30;90.20;;;;;;5102355;28;20416;-76
2021/11/12 06:50:24;;;;;;;32.20;15.15;;;13.20;90.30;;;;;;5100738;28;20475;-76
2021/11/12 06:52:51;;;;;;;14.95;7.00;;;13.20;90.30;;;;;;5102781;28;20111;-78
2021/11/12 06:55:18;;;;;;;37.47;17.20;;;13.10;90.40;;;;;;5105631;28;20048;-79
2021/11/12 06:57:45;;;;;;;33.05;15.27;;;13.10;90.40;;;;;;5105432;28;20040;-71
2021/11/12 07:00:15;;;;;;;29.90;15.40;;;13.10;90.40;;;;;;5111470;28;20356;-75
2021/11/12 07:02:41;;;;;;;40.20;19.90;;;13.10;90.50;;;;;;5107962;28;20040;-82
2021/11/12 07:05:08;;;;;;;42.60;18.38;;;13.10;90.50;;;;;;5100651;28;20070;-82
2021/11/12 07:07:35;;;;;;;34.67;17.17;;;13.10;90.50;;;;;;5098819;28;20035;-80
2021/11/12 07:10:02;;;;;;;42.72;19.77;;;13.00;90.50;;;;;;5096312;28;20024;-80
2021/11/12 07:12:31;;;;;;;40.13;17.88;;;13.00;90.50;;;;;;5111864;28;20059;-80
2021/11/12 07:14:58;;;;;;;23.65;11.27;;;13.00;90.50;;;;;;5093083;28;20111;-79
2021/11/12 07:17:24;;;;;;;35.72;19.80;;;13.10;90.50;;;;;;5100827;28;20034;-81
2021/11/12 07:19:50;;;;;;;42.35;19.98;;;13.00;90.50;;;;;;5102805;28;20028;-79
2021/11/12 07:22:16;;;;;;;39.95;17.75;;;13.00;90.50;;;;;;5099253;28;20371;-80
2021/11/12 07:24:43;;;;;;;38.35;19.35;;;13.00;90.50;;;;;;5109750;28;20028;-76
2021/11/12 07:27:09;;;;;;;38.63;17.45;;;13.00;90.50;;;;;;5096841;28;20118;-87
2021/11/12 07:29:36;;;;;;;27.52;12.98;;;13.00;90.60;;;;;;5103607;28;20509;-78
2021/11/12 07:32:04;;;;;;;39.33;19.17;;;12.90;90.60;;;;;;5097506;28;20062;-79
2021/11/12 07:34:30;;;;;;;36.45;18.95;;;12.90;90.60;;;;;;5110182;28;20035;-79
2021/11/12 07:39:52;;;;;;;28.55;15.80;;;12.90;90.70;;;;;;5084911;28;20452;-78
2021/11/12 07:42:29;;;;;;;26.90;12.15;;;12.80;90.70;;;;;;5096335;28;20035;-78
2021/11/12 07:47:27;;;;;;;23.13;10.90;;;12.80;90.80;;;;;;5095623;28;20077;-78
2021/11/12 07:49:55;;;;;;;32.08;15.73;;;12.80;90.90;;;;;;5105105;28;20530;-78
2021/11/12 07:52:27;;;;;;;24.17;12.02;;;12.80;90.90;;;;;;5105765;28;20035;-78
2021/11/12 07:54:54;;;;;;;36.33;18.02;;;12.70;91.00;;;;;;5105620;28;20044;-78
2021/11/12 07:57:20;;;;;;;17.63;7.72;;;12.70;91.00;;;;;;5106496;27;20035;-78
2021/11/12 07:59:46;;;;;;;31.77;11.95;;;12.70;91.00;;;;;;5104901;27;20071;-79
2021/11/12 08:02:17;;;;;;;28.52;11.88;;;12.70;91.00;;;;;;5114096;27;20102;-79
2021/11/12 08:04:58;;;;;;;33.33;15.65;;;12.70;91.10;;;;;;5095870;28;20028;-78
2021/11/12 08:07:26;;;;;;;15.73;8.70;;;12.70;91.10;;;;;;5107721;28;20035;-79
2021/11/12 08:09:53;;;;;;;39.60;18.63;;;12.70;91.10;;;;;;5097420;27;20270;-78
2021/11/12 08:12:41;;;;;;;39.50;16.08;;;12.70;91.00;;;;;;5110886;27;20032;-78
2021/11/12 08:15:32;;;;;;;38.83;17.15;;;12.70;91.00;;;;;;5099317;28;20111;-78
2021/11/12 08:18:22;;;;;;;22.25;8.23;;;12.70;91.00;;;;;;5100068;28;20130;-81
2021/11/12 08:20:56;;;;;;;34.97;15.43;;;12.70;91.00;;;;;;5109205;27;20168;-77
2021/11/12 08:23:51;;;;;;;21.95;10.00;;;12.70;91.00;;;;;;5107268;27;20043;-84
2021/11/12 08:26:13;;;;;;;36.13;16.73;;;12.70;91.10;;;;;;5094760;28;20044;-80
2021/11/12 08:31:29;;;;;;;36.80;15.75;;;12.70;91.00;;;;;;5108742;28;20102;-82
2021/11/12 08:41:56;;;;;;;39.30;16.75;;;12.80;91.00;;;;;;5102530;28;20016;-83
2021/11/12 08:44:26;;;;;;;34.95;16.50;;;12.80;90.90;;;;;;5095307;28;20065;-83
2021/11/12 08:47:05;;;;;;;29.35;12.15;;;12.80;90.90;;;;;;5107935;28;20031;-82
2021/11/12 08:49:32;;;;;;;41.83;14.80;;;12.90;90.90;;;;;;5122861;27;20019;-83
2021/11/12 08:52:00;;;;;;;19.50;8.18;;;12.90;90.80;;;;;;5110853;27;20529;-82
2021/11/12 08:54:29;;;;;;;26.88;12.95;;;12.90;90.80;;;;;;5100726;27;20048;-83
2021/11/12 08:56:56;;;;;;;21.10;9.60;;;12.80;90.70;;;;;;5099581;27;20032;-83
2021/11/12 08:59:21;;;;;;;22.50;8.50;;;12.80;90.80;;;;;;5101877;28;20039;-83
2021/11/12 09:01:48;;;;;;;15.35;8.73;;;12.80;90.80;;;;;;5107913;28;20486;-83
2021/11/12 09:04:14;;;;;;;29.08;14.85;;;12.70;90.90;;;;;;5096360;28;20878;-83
2021/11/12 09:06:40;;;;;;;33.45;15.65;;;12.70;90.80;;;;;;5095099;28;20028;-82
2021/11/12 09:09:09;;;;;;;20.80;7.13;;;12.70;90.70;;;;;;5111674;28;20027;-82
2021/11/12 09:11:35;;;;;;;30.10;14.35;;;12.80;90.80;;;;;;5106417;28;20062;-82
2021/11/12 09:14:03;;;;;;;25.88;12.85;;;12.80;90.80;;;;;;5095023;28;20116;-82
2021/11/12 09:16:36;;;;;;;25.60;11.43;;;12.80;90.80;;;;;;5109217;28;20049;-82
2021/11/12 09:19:06;;;;;;;27.58;13.50;;;12.80;90.70;;;;;;5102891;28;20146;-82
2021/11/12 09:21:33;;;;;;;18.85;8.45;;;12.80;90.70;;;;;;5102868;27;20055;-84
2021/11/12 09:24:00;;;;;;;20.23;10.40;;;12.80;90.80;;;;;;5095169;28;20443;-83
2021/11/12 09:26:25;;;;;;;26.63;11.93;;;12.80;90.80;;;;;;5106013;28;20035;-83
2021/11/12 09:28:52;;;;;;;32.97;14.27;;;12.80;90.70;;;;;;5109444;27;20127;-83
2021/11/12 09:31:19;;;;;;;25.35;10.82;;;12.80;90.60;;;;;;5102454;28;20027;-82
2021/11/12 09:33:45;;;;;;;31.85;14.43;;;12.80;90.60;;;;;;5110436;28;20036;-83
2021/11/12 09:36:11;;;;;;;29.63;14.88;;;12.90;90.40;;;;;;5107060;28;20043;-84
2021/11/12 09:38:39;;;;;;;17.85;9.38;;;12.90;90.40;;;;;;5105575;28;20040;-83
2021/11/12 09:41:07;;;;;;;27.27;12.02;;;12.90;90.40;;;;;;5096236;28;20145;-83
2021/11/12 09:43:33;;;;;;;25.08;12.73;;;12.90;90.30;;;;;;5098806;28;20028;-83
2021/11/12 09:45:59;;;;;;;25.17;10.77;;;12.90;90.30;;;;;;5102529;28;20032;-83
2021/11/12 09:48:28;;;;;;;29.02;14.10;;;12.90;90.40;;;;;;5108357;28;20073;-82
2021/11/12 09:50:54;;;;;;;27.40;14.35;;;12.90;90.30;;;;;;5093136;28;20020;-82
2021/11/12 09:53:21;;;;;;;34.65;16.30;;;13.00;90.20;;;;;;5097323;28;20039;-82
2021/11/12 09:55:47;;;;;;;34.40;17.20;;;13.00;90.10;;;;;;5107009;27;20054;-83
2021/11/12 09:58:14;;;;;;;32.70;15.25;;;13.10;90.00;;;;;;5123314;27;20057;-83
2021/11/12 10:00:41;;;;;;;32.03;14.50;;;13.10;89.80;;;;;;5097628;28;20100;-83
2021/11/12 10:03:09;;;;;;;31.20;15.20;;;13.10;89.60;;;;;;5096189;28;20414;-82
2021/11/12 10:05:47;;;;;;;26.85;13.30;;;13.20;89.70;;;;;;5107735;27;20020;-82
2021/11/12 10:08:37;;;;;;;26.88;13.18;;;13.20;89.50;;;;;;5108646;28;20031;-81
2021/11/12 10:11:07;;;;;;;29.95;12.30;;;13.20;89.60;;;;;;5118339;27;20046;-81
2021/11/12 10:13:39;;;;;;;29.25;14.70;;;13.30;89.50;;;;;;5109439;27;20031;-85
2021/11/12 10:16:56;;;;;;;34.17;14.40;;;13.30;89.50;;;;;;5099174;28;20100;-84
2021/11/12 10:19:02;;;;;;;28.15;13.65;;;13.30;89.40;;;;;;5095031;27;20056;-84
2021/11/12 10:21:46;;;;;;;27.70;13.98;;;13.30;89.20;;;;;;5116720;27;20078;-85
2021/11/12 10:24:16;;;;;;;29.77;14.15;;;13.40;89.00;;;;;;5099019;27;20036;-85
2021/11/12 10:26:45;;;;;;;30.25;14.18;;;13.30;88.70;;;;;;5106153;28;20035;-85
2021/11/12 10:29:14;;;;;;;21.35;10.85;;;13.40;88.60;;;;;;5099258;28;20023;-84
2021/11/12 10:31:48;;;;;;;29.92;13.18;;;13.40;89.10;;;;;;5099154;27;20103;-83
2021/11/12 10:34:20;;;;;;;31.35;13.98;;;13.40;89.10;;;;;;5097670;28;20023;-82
2021/11/12 10:37:03;;;;;;;20.88;11.70;;;13.40;89.00;;;;;;5105568;28;20474;-82
2021/11/12 10:39:30;;;;;;;25.92;13.48;;;13.40;89.00;;;;;;5106022;28;20057;-81
2021/11/12 10:41:58;;;;;;;29.50;11.90;;;13.50;89.00;;;;;;5106425;28;20490;-86
2021/11/12 10:44:24;;;;;;;23.60;12.18;;;13.50;89.20;;;;;;5100906;28;20045;-85
2021/11/12 10:46:50;;;;;;;18.73;9.48;;;13.50;89.20;;;;;;5097729;28;20028;-77
2021/11/12 10:49:30;;;;;;;18.10;9.35;;;13.50;89.40;;;;;;5094220;28;20429;-79
2021/11/12 10:52:14;;;;;;;15.55;7.65;;;13.50;89.50;;;;;;5100402;28;20076;-78
2021/11/12 10:55:01;;;;;;;19.98;9.10;;;13.50;89.40;;;;;;5095116;28;20506;-79
2021/11/12 10:57:38;;;;;;;17.00;8.90;;;13.60;89.60;;;;;;5102023;28;20469;-80
2021/11/12 11:00:13;;;;;;;13.05;6.68;;;13.60;89.70;;;;;;5102458;28;20035;-81
2021/11/12 11:02:49;;;;;;;25.05;9.18;;;13.50;89.80;;;;;;5096228;28;20069;-79
2021/11/12 11:05:45;;;;;;;19.25;9.30;;;13.50;89.70;;;;;;5102527;28;20145;-78
2021/11/12 11:08:14;;;;;;;15.05;8.20;;;13.50;89.90;;;;;;5086894;28;20382;-79
2021/11/12 11:11:07;;;;;;;12.02;7.15;;;13.50;89.70;;;;;;5103708;28;20042;-79
2021/11/12 11:13:36;;;;;;;13.52;7.05;;;13.50;89.90;;;;;;5098717;28;20050;-79
2021/11/12 11:16:08;;;;;;;14.98;7.68;;;13.50;89.90;;;;;;5102339;28;20040;-78
2021/11/12 11:18:40;;;;;;;17.92;10.18;;;13.50;90.00;;;;;;5097982;28;20035;-81
2021/11/12 11:23:47;;;;;;;10.13;6.38;;;13.50;89.30;;;;;;5101663;28;20229;-78
2021/11/12 11:26:21;;;;;;;19.48;9.25;;;13.60;89.60;;;;;;5102428;28;20114;-80
2021/11/12 11:28:49;;;;;;;16.02;9.23;;;13.60;89.50;;;;;;5096936;28;20032;-77
2021/11/12 11:31:16;;;;;;;18.98;10.10;;;13.60;89.10;;;;;;5102465;28;20031;-77
2021/11/12 11:33:47;;;;;;;15.80;7.63;;;13.60;88.80;;;;;;5101381;28;20547;-77
2021/11/12 11:36:16;;;;;;;10.63;7.07;;;13.60;89.40;;;;;;5095262;28;20062;-78
2021/11/12 11:38:42;;;;;;;19.23;10.23;;;13.60;89.50;;;;;;5103703;28;20035;-78
2021/11/12 11:41:10;;;;;;;18.40;11.73;;;13.60;89.40;;;;;;5102066;28;20387;-78
2021/11/12 11:43:36;;;;;;;17.48;8.95;;;13.60;89.00;;;;;;5104520;28;20031;-80
2021/11/12 11:46:05;;;;;;;28.65;11.95;;;13.70;88.80;;;;;;5103822;27;20102;-80
2021/11/12 11:48:36;;;;;;;19.00;11.70;;;13.70;88.80;;;;;;5104020;28;20036;-78
2021/11/12 11:51:02;;;;;;;16.23;10.45;;;13.70;88.40;;;;;;5109373;28;20111;-79
2021/11/12 11:53:44;;;;;;;14.68;8.48;;;13.70;88.20;;;;;;5106282;28;20758;-79
2021/11/12 11:56:32;;;;;;;15.88;9.23;;;13.70;88.00;;;;;;5102521;28;20443;-80
2021/11/12 11:58:59;;;;;;;12.95;8.00;;;13.70;88.20;;;;;;5106556;28;20040;-81
2021/11/12 12:01:33;;;;;;;13.15;6.97;;;13.70;87.90;;;;;;5105072;28;20425;-80
2021/11/12 12:04:21;;;;;;;;;;;13.70;88.40;;;;;;5102390;28;20038;-75
2021/11/12 12:07:02;;;;;;;13.98;7.38;;;13.70;89.10;;;;;;5107214;28;19966;-77
2021/11/12 12:09:48;;;;;;;15.02;8.32;;;13.70;88.70;;;;;;5103259;28;20379;-77
2021/11/12 12:12:34;;;;;;;10.88;6.32;;;13.70;88.40;;;;;;5100884;28;20024;-81
2021/11/12 12:15:06;;;;;;;15.00;9.27;;;13.70;89.00;;;;;;5097764;28;20032;-77
2021/11/12 12:17:34;;;;;;;11.07;6.03;;;13.60;88.90;;;;;;5094477;28;20032;-78
2021/11/12 12:20:17;;;;;;;17.25;10.88;;;13.70;89.20;;;;;;5099023;28;20478;-83
2021/11/12 13:25:58;;;;;;;21.42;10.77;;;13.70;89.50;;;;;;5105202;28;20027;-82
2021/11/12 13:28:30;;;;;;;19.25;10.60;;;13.80;89.70;;;;;;5098088;28;20047;-82
2021/11/12 13:31:08;;;;;;;19.17;9.25;;;13.80;89.40;;;;;;5103488;28;20042;-83
2021/11/12 13:33:48;;;;;;;13.23;7.78;;;13.80;89.30;;;;;;5101598;28;20119;-85
2021/11/12 13:36:28;;;;;;;19.92;10.30;;;13.80;89.50;;;;;;5097836;28;20032;-83
2021/11/12 13:38:59;;;;;;;19.27;9.98;;;13.80;89.40;;;;;;5099630;28;20806;-84
2021/11/12 13:41:49;;;;;;;21.73;9.00;;;13.80;89.50;;;;;;5101205;28;20039;-82
2021/11/12 13:44:17;;;;;;;14.82;7.03;;;13.80;89.90;;;;;;5091392;28;20047;-79
2021/11/12 13:46:54;;;;;;;13.30;6.60;;;13.70;90.20;;;;;;5092571;28;20036;-77
2021/11/12 13:49:28;;;;;;;23.90;11.15;;;13.70;90.40;;;;;;5102826;28;20102;-77
2021/11/12 13:52:00;;;;;;;26.95;13.68;;;13.70;90.30;;;;;;5107889;28;20038;-79
2021/11/12 13:54:26;;;;;;;26.65;13.60;;;13.70;90.10;;;;;;5092942;28;20040;-84
2021/11/12 13:56:52;;;;;;;28.25;13.27;;;13.60;90.20;;;;;;5098608;28;20026;-83
2021/11/12 13:59:17;;;;;;;16.10;7.25;;;13.60;90.10;;;;;;5101583;28;20067;-83
2021/11/12 14:02:00;;;;;;;25.08;11.63;;;13.60;90.30;;;;;;5121394;28;20031;-82
2021/11/12 14:04:29;;;;;;;35.90;15.90;;;13.60;90.30;;;;;;5109245;27;20023;-83
2021/11/12 14:06:57;;;;;;;34.75;13.30;;;13.60;90.10;;;;;;5103027;28;20039;-81
2021/11/12 14:09:34;;;;;;;27.17;14.20;;;13.60;90.00;;;;;;5097275;28;20474;-83
2021/11/12 14:12:04;;;;;;;27.00;12.18;;;13.60;89.40;;;;;;5101812;28;20031;-83
2021/11/12 14:14:32;;;;;;;32.60;14.68;;;13.70;89.80;;;;;;5104509;28;20086;-80
2021/11/12 14:17:29;;;;;;;30.58;14.75;;;13.60;89.70;;;;;;5103865;28;20475;-81
2021/11/12 14:20:34;;;;;;;32.03;17.83;;;13.60;89.60;;;;;;5107134;28;20500;-81
2021/11/12 14:23:21;;;;;;;14.77;7.93;;;13.60;89.20;;;;;;5104741;28;20028;-79
2021/11/12 14:26:21;;;;;;;28.20;12.57;;;13.60;90.00;;;;;;5103256;28;20028;-80
2021/11/12 14:34:44;;;;;;;25.60;10.90;;;13.50;90.30;;;;;;5097996;28;20074;-80
2021/11/12 14:37:27;;;;;;;35.53;17.30;;;13.50;90.30;;;;;;5101594;28;20063;-80
2021/11/12 14:40:07;;;;;;;33.28;14.45;;;13.50;90.10;;;;;;5103602;28;20122;-80
2021/11/12 14:42:56;;;;;;;33.05;12.63;;;13.40;90.10;;;;;;5102246;28;20665;-80
2021/11/12 14:45:32;;;;;;;43.60;18.30;;;13.40;90.20;;;;;;5099436;28;20074;-80
2021/11/12 14:48:04;;;;;;;30.33;13.82;;;13.40;90.10;;;;;;5100594;28;20027;-77
2021/11/12 14:51:00;;;;;;;42.97;21.27;;;13.40;90.10;;;;;;5102049;28;20455;-84
2021/11/12 14:54:09;;;;;;;37.42;18.38;;;13.30;90.00;;;;;;5101757;28;20058;-85
2021/11/12 14:59:27;;;;;;;49.28;21.35;;;13.40;90.00;;;;;;5106428;28;20048;-67
2021/11/12 15:01:46;;;;;;;18.80;8.80;;;13.30;89.50;;;;;;5098265;28;20058;-75
2021/11/12 15:04:11;;;;;;;41.85;15.65;;;13.30;90.10;;;;;;5104080;28;20034;-73
2021/11/12 15:06:37;;;;;;;43.28;22.35;;;13.30;90.10;;;;;;5103390;28;20110;-79
2021/11/12 15:09:07;;;;;;;42.10;16.50;;;13.30;89.70;;;;;;5107342;28;20027;-79
2021/11/12 15:11:34;;;;;;;31.60;12.13;;;13.30;90.00;;;;;;5108021;28;20051;-79
2021/11/12 15:14:06;;;;;;;37.00;18.08;;;13.20;90.00;;;;;;5107592;28;20118;-83
2021/11/12 15:16:34;;;;;;;37.28;17.52;;;13.20;89.70;;;;;;5104387;28;20024;-83
2021/11/12 15:19:03;;;;;;;32.65;13.80;;;13.20;89.80;;;;;;5106355;28;20085;-79
2021/11/12 15:21:33;;;;;;;41.13;19.05;;;13.20;89.90;;;;;;5114281;27;20483;-77
2021/11/12 15:26:36;;;;;;;40.72;21.05;;;13.10;89.10;;;;;;5104772;27;20023;-80
2021/11/12 15:29:14;;;;;;;27.63;14.65;;;13.20;88.70;;;;;;5104005;27;20114;-81
2021/11/12 15:34:28;;;;;;;37.13;14.13;;;13.20;89.50;;;;;;5112188;28;20470;-82
2021/11/12 15:44:45;;;;;;;41.22;20.33;;;13.10;88.60;;;;;;5102556;28;20024;-79
2021/11/12 15:47:23;;;;;;;39.88;20.75;;;13.10;88.40;;;;;;5113292;28;20110;-79
2021/11/12 15:49:53;;;;;;;44.10;21.83;;;13.10;88.00;;;;;;5113137;28;20067;-78
2021/11/12 15:52:26;;;;;;;46.83;21.13;;;13.00;87.40;;;;;;5104426;28;20406;-79
2021/11/12 15:57:39;;;;;;;47.05;22.60;;;13.00;88.40;;;;;;5104770;28;20055;-81
2021/11/12 16:08:01;;;;;;;51.00;25.15;;;12.90;86.70;;;;;;5107589;28;20032;-81
2021/11/12 16:10:51;;;;;;;45.35;21.27;;;12.90;86.60;;;;;;5105548;28;20395;-82
2021/11/12 16:13:26;;;;;;;38.35;14.25;;;12.90;87.40;;;;;;5105236;28;20411;-77
2021/11/12 16:18:52;;;;;;;57.00;25.80;;;12.80;88.60;;;;;;5095139;28;20047;-80
2021/11/12 16:26:41;;;;;;;48.10;22.50;;;12.70;88.00;;;;;;5107600;28;20035;-78
2021/11/12 16:31:37;;;;;;;48.97;18.92;;;12.70;87.90;;;;;;5100311;28;20023;-80
2021/11/12 16:34:13;;;;;;;52.88;23.63;;;12.70;88.00;;;;;;5097619;28;20035;-79
2021/11/12 16:37:13;;;;;;;49.50;18.25;;;12.70;88.00;;;;;;5101257;28;20546;-78
2021/11/12 16:39:40;;;;;;;48.13;20.23;;;12.70;88.10;;;;;;5101956;28;20044;-80
2021/11/12 16:42:21;;;;;;;33.33;15.73;;;12.60;88.10;;;;;;5097296;28;20107;-79
2021/11/12 17:03:22;;;;;;;51.78;20.83;;;12.60;88.70;;;;;;5117905;27;20510;-78
2021/11/12 17:06:14;;;;;;;58.67;27.77;;;12.50;88.70;;;;;;5103966;27;20491;-77
2021/11/12 17:46:13;;;;;;;50.08;23.90;;;12.20;88.30;;;;;;5095834;28;20055;-78
2021/11/12 17:48:41;;;;;;;58.05;25.80;;;12.20;88.10;;;;;;5098807;28;20394;-77
2021/11/12 18:01:39;;;;;;;49.20;25.15;;;12.20;87.70;;;;;;5101383;28;20451;-77
2021/11/12 18:09:52;;;;;;;43.47;17.63;;;12.10;87.70;;;;;;5098656;28;20067;-79
2021/11/12 18:18:08;;;;;;;40.70;18.85;;;12.10;88.00;;;;;;5076693;28;20055;-78
2021/11/12 18:21:33;;;;;;;47.95;18.15;;;12.10;88.00;;;;;;5100290;27;20093;-78
2021/11/12 21:45:07;;;;;;;29.73;14.25;;;11.40;90.00;;;;;;5092996;28;20024;-80
2021/11/12 21:47:33;;;;;;;13.55;6.90;;;11.40;90.00;;;;;;5099888;28;20059;-81
2021/11/12 21:49:58;;;;;;;22.30;10.18;;;11.30;89.90;;;;;;5098430;28;20028;-81
2021/11/12 21:52:24;;;;;;;14.35;6.63;;;11.40;90.00;;;;;;5105847;28;20066;-80
2021/11/12 21:54:50;;;;;;;18.33;9.52;;;11.40;90.00;;;;;;5092234;28;20105;-81
2021/11/12 21:57:16;;;;;;;14.32;8.23;;;11.40;90.00;;;;;;5105368;28;20035;-80
2021/11/12 21:59:42;;;;;;;19.50;9.80;;;11.30;90.00;;;;;;5094121;28;20040;-80
2021/11/12 22:02:09;;;;;;;19.42;8.88;;;11.40;90.00;;;;;;5094370;28;20050;-80
2021/11/12 22:04:35;;;;;;;22.58;12.15;;;11.40;90.00;;;;;;5115150;27;20526;-80
2021/11/12 22:07:03;;;;;;;23.42;11.02;;;11.30;90.00;;;;;;5102177;27;20032;-80
2021/11/12 22:09:29;;;;;;;21.02;9.68;;;11.40;90.10;;;;;;5094556;28;20406;-79
2021/11/12 22:11:55;;;;;;;24.88;12.00;;;11.40;90.00;;;;;;5101356;28;20028;-80
2021/11/12 22:14:24;;;;;;;21.48;11.25;;;11.40;90.00;;;;;;5093340;28;20099;-80
2021/11/12 22:16:50;;;;;;;8.35;5.15;;;11.40;90.10;;;;;;5102706;28;20066;-80
2021/11/12 22:19:16;;;;;;;19.42;10.27;;;11.40;90.00;;;;;;5096058;28;20036;-79
2021/11/12 22:21:41;;;;;;;14.07;7.28;;;11.40;90.10;;;;;;5099549;27;20400;-79
2021/11/12 22:24:07;;;;;;;17.88;7.93;;;11.30;90.00;;;;;;5093031;28;20066;-80
2021/11/12 22:26:33;;;;;;;11.98;5.15;;;11.30;90.00;;;;;;5097518;28;20076;-80